NCAR-RAP Real-Time Weather Data

Output produced by METARs form (12 May 2021  12:32 UTC)
found at http://weather.rap.ucar.edu/surface/
 
KSUX 121152Z 00000KT 10SM CLR 02/M02 A3043 RMK AO2 SLP310 T00171017 10061 20011 53011
KSUX 121052Z 11004KT 10SM CLR 03/M02 A3041 RMK AO2 SLP302 T00281022
KSUX 120952Z AUTO 00000KT 10SM CLR 02/M02 A3040 RMK AO2 SLP301 T00221022
KSUX 120852Z AUTO 12004KT 10SM CLR 03/M02 A3040 RMK AO2 SLP298 T00331022 51004
KSUX 120752Z AUTO 10005KT 10SM CLR 04/M02 A3039 RMK AO2 SLP295 T00441022
KSUX 120652Z AUTO 11004KT 10SM CLR 06/M02 A3039 RMK AO2 SLP296 T00611022
KSUX 120552Z AUTO 11004KT 10SM CLR 06/M02 A3039 RMK AO2 SLP294 T00611022 10156 20028 401671006 51010
KSUX 120452Z AUTO 15003KT 10SM CLR 06/M02 A3038 RMK AO2 SLP293 T00561017
KSUX 120352Z AUTO 10005KT 10SM CLR 07/M02 A3037 RMK AO2 SLP291 T00671017
KSUX 120252Z AUTO 08005KT 10SM CLR 10/M03 A3036 RMK AO2 SLP284 T01001028 53016
KSUX 120152Z 08005KT 10SM CLR 12/M03 A3033 RMK AO2 SLP274 T01221028
KSUX 120052Z 11006KT 10SM CLR 14/M03 A3031 RMK AO2 SLP268 T01441033
KSUX 112352Z AUTO 13005KT 10SM CLR 16/M03 A3031 RMK AO2 SLP269 T01561033 10167 20133 53001
KSUX 112252Z 09008KT 10SM CLR 16/M02 A3030 RMK AO2 SLP266 T01611022
KSUX 112152Z 14009G14KT 10SM CLR 16/M03 A3030 RMK AO2 SLP264 T01611028